Kyme — XUPY9 — position and weather

sailwx.info

Track history (hours):
 
Tides and Currents Weather Stations Pressure Air Temp Water Temp Dewpoint Dewpoint Depression Visibility Wind Speed Wind Dir Waves Ship Positions

Kyme

Last reported at 2014-Sep-02 01:33 UTC. Time now 2014-Sep-03 02:14 UTC.
Position N 46°36' E 031°41'.

Length 114 m; draft 3.6 m.

Type: Cargo ship. MMSI: 514283000.

Date/timePositionNaut miles runAvg speedWind from/ knotsBaromVisibWave heightAir tempDewpointWater temp
2014-Sep-02 01:33N 46°36' E 031°41'7 6.9
2014-Sep-02 00:33N 46°35' E 031°51'7 6.8
2014-Sep-01 23:33N 46°33' E 032°01'6 6.4
2014-Sep-01 22:33N 46°32' E 032°10'9 6.4
2014-Sep-01 21:14N 46°33' E 032°22'  
2014-Aug-26 20:27N 46°34' E 032°28'6 6.6
2014-Aug-26 19:33N 46°33' E 032°20'7 7.3
2014-Aug-26 18:32N 46°32' E 032°09'7 7.4
2014-Aug-26 17:34N 46°33' E 031°58'8 7.5
2014-Aug-26 16:33N 46°35' E 031°48'9 7.6
2014-Aug-26 15:25N 46°35' E 031°35'280 5.7
2014-Aug-24 14:33N 42°17' E 029°03'7 6.7
2014-Aug-24 13:33N 42°10' E 029°06'69 6.1
2014-Aug-24 02:16N 41°01' E 029°00'4 5.2
2014-Aug-24 01:33N 40°58' E 028°59'3 3.1
2014-Aug-24 00:33N 40°59' E 028°55'0 0.1
2014-Aug-23 22:30N 40°59' E 028°55'0 0.0
2014-Aug-23 21:30N 40°59' E 028°55'0 0.0
2014-Aug-23 20:30N 40°59' E 028°55'0 0.0
2014-Aug-23 19:12N 40°59' E 028°55'0 0.0
2014-Aug-23 03:33N 40°59' E 028°55'0 0.0
2014-Aug-23 02:33N 40°59' E 028°55'  
Track history (hours):
 
Tides and Currents Weather Stations Pressure Air Temp Water Temp Dewpoint Dewpoint Depression Visibility Wind Speed Wind Dir Waves Ship Positions

Kyme

Last reported at 2014-Sep-02 01:33 UTC. Time now 2014-Sep-03 02:14 UTC.
Position N 46°36' E 031°41'.

Length 114 m; draft 3.6 m.

Type: Cargo ship. MMSI: 514283000.

Date/timePositionNaut miles runAvg speedWind from/ knotsBaromVisibWave heightAir tempDewpointWater temp
2014-Sep-02 01:33N 46°36' E 031°41'7 6.9
2014-Sep-02 00:33N 46°35' E 031°51'7 6.8
2014-Sep-01 23:33N 46°33' E 032°01'6 6.4
2014-Sep-01 22:33N 46°32' E 032°10'9 6.4
2014-Sep-01 21:14N 46°33' E 032°22'  
2014-Aug-26 20:27N 46°34' E 032°28'6 6.6
2014-Aug-26 19:33N 46°33' E 032°20'7 7.3
2014-Aug-26 18:32N 46°32' E 032°09'7 7.4
2014-Aug-26 17:34N 46°33' E 031°58'8 7.5
2014-Aug-26 16:33N 46°35' E 031°48'9 7.6
2014-Aug-26 15:25N 46°35' E 031°35'280 5.7
2014-Aug-24 14:33N 42°17' E 029°03'7 6.7
2014-Aug-24 13:33N 42°10' E 029°06'69 6.1
2014-Aug-24 02:16N 41°01' E 029°00'4 5.2
2014-Aug-24 01:33N 40°58' E 028°59'3 3.1
2014-Aug-24 00:33N 40°59' E 028°55'0 0.1
2014-Aug-23 22:30N 40°59' E 028°55'0 0.0
2014-Aug-23 21:30N 40°59' E 028°55'0 0.0
2014-Aug-23 20:30N 40°59' E 028°55'0 0.0
2014-Aug-23 19:12N 40°59' E 028°55'0 0.0
2014-Aug-23 03:33N 40°59' E 028°55'0 0.0
2014-Aug-23 02:33N 40°59' E 028°55'  

Dump ship's entire track history